Time;durP1;ratioP1;P1;durP2;ratioP2;P2;SDS_P1;SDS_P2;PMS_P1;PMS_P2;Temp;Humidity;BMP_temperature;BMP_pressure;BME280_temperature;BME280_humidity;BME280_pressure;Samples;Min_cycle;Max_cycle;Signal;HPM_P1;HPM_P2
2023/10/09 00:01:31;;;;;;;8.10;5.10;;;;;;;12.82;100.00;98788.69;5071973;28;20231;-80
2023/10/09 00:04:01;;;;;;;9.40;4.67;;;;;;;12.79;100.00;98779.16;5072796;28;20211;-80
2023/10/09 00:06:37;;;;;;;12.27;5.60;;;;;;;12.77;100.00;98783.69;5072774;28;20247;-80
2023/10/09 00:09:30;;;;;;;11.23;4.77;;;;;;;12.82;100.00;98778.06;5072842;28;20601;-80
2023/10/09 00:11:57;;;;;;;10.13;5.47;;;;;;;12.82;100.00;98772.78;5071979;28;20227;-80
2023/10/09 00:14:25;;;;;;;7.97;4.83;;;;;;;12.79;100.00;98778.31;5072879;28;20245;-80
2023/10/09 00:16:56;;;;;;;9.47;5.10;;;;;;;12.79;100.00;98773.84;5072629;28;20211;-80
2023/10/09 00:19:30;;;;;;;10.43;4.90;;;;;;;12.81;100.00;98781.69;5072474;28;20211;-80
2023/10/09 00:21:58;;;;;;;10.73;5.63;;;;;;;12.80;100.00;98780.00;5072712;28;20257;-80
2023/10/09 00:24:25;;;;;;;11.60;5.07;;;;;;;12.78;100.00;98776.59;5076025;28;20200;-80
2023/10/09 00:26:55;;;;;;;9.10;5.23;;;;;;;12.83;100.00;98774.50;5076033;28;20207;-80
2023/10/09 00:29:22;;;;;;;9.07;5.27;;;;;;;12.82;100.00;98772.78;5076319;28;20210;-80
2023/10/09 00:31:54;;;;;;;11.90;5.30;;;;;;;12.80;100.00;98769.38;5075498;28;20734;-80
2023/10/09 00:34:22;;;;;;;8.17;4.80;;;;;;;12.80;100.00;98764.09;5076071;28;20399;-80
2023/10/09 00:36:51;;;;;;;10.30;5.33;;;;;;;12.78;100.00;98766.00;5075889;28;20214;-80
2023/10/09 00:39:31;;;;;;;9.60;5.27;;;;;;;12.74;100.00;98765.34;5075854;28;20207;-80
2023/10/09 00:42:00;;;;;;;12.30;5.37;;;;;;;12.80;100.00;98761.44;5075056;28;20300;-80
2023/10/09 00:44:37;;;;;;;11.50;4.90;;;;;;;12.81;100.00;98761.34;5075271;28;20298;-80
2023/10/09 00:47:10;;;;;;;8.93;4.53;;;;;;;12.82;100.00;98759.50;5075204;28;20628;-79
2023/10/09 00:49:42;;;;;;;11.97;5.33;;;;;;;12.88;100.00;98761.75;5075579;28;20211;-80
2023/10/09 00:52:17;;;;;;;9.87;4.90;;;;;;;12.90;100.00;98755.38;5074595;28;20318;-80
2023/10/09 00:54:51;;;;;;;9.83;4.93;;;;;;;12.92;100.00;98756.16;5075567;28;20206;-79
2023/10/09 00:57:24;;;;;;;9.70;5.30;;;;;;;12.92;100.00;98752.63;5074767;28;20583;-80
2023/10/09 00:59:59;;;;;;;9.80;4.93;;;;;;;12.93;100.00;98747.22;5074747;28;20226;-80
2023/10/09 01:02:35;;;;;;;14.03;5.87;;;;;;;12.96;100.00;98748.84;5074412;28;20288;-79
2023/10/09 01:05:18;;;;;;;8.23;4.57;;;;;;;13.00;100.00;98745.88;5074984;28;20810;-80
2023/10/09 01:07:46;;;;;;;12.77;5.30;;;;;;;13.02;100.00;98737.81;5074685;28;20203;-80
2023/10/09 01:10:15;;;;;;;9.43;4.77;;;;;;;13.00;100.00;98731.75;5075492;28;20207;-80
2023/10/09 01:12:44;;;;;;;10.87;5.17;;;;;;;12.99;100.00;98730.91;5074511;28;20239;-80
2023/10/09 01:15:18;;;;;;;10.30;4.90;;;;;;;13.03;100.00;98731.56;5075448;28;20292;-80
2023/10/09 01:17:46;;;;;;;12.67;5.07;;;;;;;13.02;100.00;98732.50;5074418;28;20207;-80
2023/10/09 01:20:16;;;;;;;8.70;4.50;;;;;;;13.00;100.00;98734.41;5074656;28;20220;-80
2023/10/09 01:22:44;;;;;;;12.13;4.77;;;;;;;13.02;100.00;98732.50;5074337;28;20227;-80
2023/10/09 01:25:11;;;;;;;8.67;5.13;;;;;;;13.08;100.00;98729.44;5074755;28;20272;-80
2023/10/09 01:27:40;;;;;;;11.37;5.23;;;;;;;13.07;100.00;98731.22;5074849;28;20725;-80
2023/10/09 01:30:10;;;;;;;10.07;4.57;;;;;;;13.12;100.00;98725.59;5074708;28;20215;-80
2023/10/09 01:32:37;;;;;;;7.47;4.33;;;;;;;13.12;100.00;98722.94;5073870;28;20227;-80
2023/10/09 01:35:20;;;;;;;7.30;4.43;;;;;;;13.12;100.00;98717.63;5074083;28;20626;-80
2023/10/09 01:37:50;;;;;;;8.17;4.70;;;;;;;13.23;100.00;98720.38;5056367;28;20212;-80
2023/10/09 01:40:25;;;;;;;8.80;4.37;;;;;;;13.23;100.00;98710.63;5074366;28;20302;-80
2023/10/09 01:42:51;;;;;;;11.77;5.50;;;;;;;13.22;100.00;98711.59;5073349;28;20677;-80
2023/10/09 01:45:27;;;;;;;8.63;4.90;;;;;;;13.22;100.00;98724.00;5074648;28;20215;-80
2023/10/09 01:47:55;;;;;;;10.47;5.67;;;;;;;13.24;100.00;98711.44;5074256;28;20268;-80
2023/10/09 01:50:24;;;;;;;8.73;4.77;;;;;;;13.23;100.00;98710.63;5074146;28;20680;-80
2023/10/09 01:52:52;;;;;;;9.00;4.53;;;;;;;13.23;100.00;98704.44;5073372;28;20232;-80
2023/10/09 01:55:33;;;;;;;11.30;4.90;;;;;;;13.18;100.00;98691.50;5074201;28;20273;-80
2023/10/09 01:58:05;;;;;;;7.67;4.73;;;;;;;13.19;100.00;98702.97;5074294;28;20215;-80
2023/10/09 02:00:35;;;;;;;11.00;4.60;;;;;;;13.18;100.00;98695.97;5055511;28;20198;-79
2023/10/09 02:03:05;;;;;;;11.17;4.80;;;;;;;13.19;100.00;98702.97;5073302;28;20253;-80
2023/10/09 02:05:33;;;;;;;15.40;5.67;;;;;;;13.19;100.00;98697.66;5073869;28;20211;-80
2023/10/09 02:08:03;;;;;;;12.27;4.83;;;;;;;13.22;100.00;98693.00;5073419;28;20207;-80
2023/10/09 02:10:37;;;;;;;9.57;4.60;;;;;;;13.20;100.00;98694.91;5073716;28;20265;-80
2023/10/09 02:13:07;;;;;;;7.33;4.60;;;;;;;13.16;100.00;98697.88;5073488;28;20235;-80
2023/10/09 02:15:53;;;;;;;10.17;4.57;;;;;;;13.12;100.00;98689.28;5074203;28;20204;-79
2023/10/09 02:18:39;;;;;;;10.03;4.60;;;;;;;13.14;100.00;98690.03;5073717;28;20237;-80
2023/10/09 02:21:13;;;;;;;8.17;4.53;;;;;;;13.14;100.00;98686.53;5073639;28;20281;-80
2023/10/09 02:23:41;;;;;;;7.70;4.43;;;;;;;13.13;100.00;98682.16;5073308;28;20214;-80
2023/10/09 02:26:10;;;;;;;7.57;4.70;;;;;;;13.12;100.00;98691.94;5073704;28;20766;-80
2023/10/09 02:28:37;;;;;;;10.47;4.97;;;;;;;13.13;100.00;98688.31;5073689;28;20230;-80
2023/10/09 02:31:11;;;;;;;9.70;4.73;;;;;;;13.18;100.00;98701.25;5073056;28;20231;-79
2023/10/09 02:33:39;;;;;;;8.73;4.10;;;;;;;13.13;100.00;98693.63;5073013;28;20596;-80
2023/10/09 02:36:06;;;;;;;11.73;5.43;;;;;;;13.13;100.00;98692.78;5073424;28;20203;-80
2023/10/09 02:38:42;;;;;;;12.57;5.20;;;;;;;13.09;100.00;98686.00;5073369;28;20214;-80
2023/10/09 02:41:20;;;;;;;9.83;5.10;;;;;;;13.13;100.00;98690.13;5073004;28;20219;-80
2023/10/09 02:43:48;;;;;;;9.63;4.53;;;;;;;13.14;100.00;98689.19;5073394;28;20207;-80
2023/10/09 02:46:17;;;;;;;12.43;5.50;;;;;;;13.13;100.00;98682.16;5072470;28;20220;-80
2023/10/09 02:48:48;;;;;;;13.27;5.43;;;;;;;13.13;100.00;98685.69;5073263;28;20367;-80
2023/10/09 02:51:22;;;;;;;10.67;5.43;;;;;;;13.14;100.00;98683.88;5072868;28;20234;-80
2023/10/09 02:53:49;;;;;;;7.37;4.80;;;;;;;13.13;100.00;98676.84;5072604;28;20227;-80
2023/10/09 02:56:19;;;;;;;8.07;5.10;;;;;;;13.16;100.00;98674.84;5072956;28;20218;-80
2023/10/09 02:58:48;;;;;;;8.40;4.90;;;;;;;13.18;100.00;98674.72;5072860;28;20207;-79
2023/10/09 03:01:14;;;;;;;11.93;5.30;;;;;;;13.14;100.00;98671.44;5072544;28;20265;-80
2023/10/09 03:03:45;;;;;;;10.47;5.30;;;;;;;13.17;100.00;98670.38;5072323;28;20214;-80
2023/10/09 03:06:12;;;;;;;13.63;5.10;;;;;;;13.18;100.00;98669.41;5073041;28;20212;-80
2023/10/09 03:08:40;;;;;;;11.13;5.50;;;;;;;13.17;100.00;98667.72;5072655;28;20689;-80
2023/10/09 03:11:12;;;;;;;13.73;5.60;;;;;;;13.21;100.00;98663.91;5072968;28;20227;-81
2023/10/09 03:13:43;;;;;;;9.63;4.90;;;;;;;13.24;100.00;98659.22;5072017;28;20223;-81
2023/10/09 03:16:09;;;;;;;9.63;5.30;;;;;;;13.22;100.00;98658.50;5072801;28;20210;-81
2023/10/09 03:18:36;;;;;;;12.50;5.23;;;;;;;13.25;100.00;98658.25;5072974;28;20225;-81
2023/10/09 03:21:03;;;;;;;10.93;4.63;;;;;;;13.26;100.00;98648.50;5072364;28;20234;-81
2023/10/09 03:23:30;;;;;;;8.67;4.83;;;;;;;13.27;100.00;98660.81;5072170;28;20218;-81
2023/10/09 03:25:58;;;;;;;10.80;4.90;;;;;;;13.31;100.00;98656.97;5072793;28;20215;-81
2023/10/09 03:28:25;;;;;;;8.87;4.63;;;;;;;13.28;100.00;98649.22;5072641;28;20211;-81
2023/10/09 03:30:53;;;;;;;9.73;4.73;;;;;;;13.26;100.00;98648.50;5072649;28;20238;-81
2023/10/09 03:33:19;;;;;;;9.70;4.30;;;;;;;13.28;100.00;98654.53;5053695;28;20204;-81
2023/10/09 03:35:46;;;;;;;10.87;4.53;;;;;;;13.32;100.00;98653.38;5072315;28;20215;-81
2023/10/09 03:38:16;;;;;;;10.60;4.70;;;;;;;13.29;100.00;98650.94;5072112;28;20215;-81
2023/10/09 03:40:43;;;;;;;7.73;3.77;;;;;;;13.25;100.00;98650.28;5072547;28;20238;-81
2023/10/09 03:43:11;;;;;;;10.57;5.33;;;;;;;13.25;100.00;98652.09;5072022;28;20588;-81
2023/10/09 03:45:39;;;;;;;10.97;4.77;;;;;;;13.26;100.00;98648.50;5072393;28;20203;-81
2023/10/09 03:48:14;;;;;;;9.37;4.50;;;;;;;13.26;100.00;98643.19;5072110;28;20647;-81
2023/10/09 03:50:43;;;;;;;9.60;4.10;;;;;;;13.29;100.00;98641.16;5072162;28;20249;-81
2023/10/09 03:53:12;;;;;;;10.87;4.60;;;;;;;13.32;100.00;98634.78;5071591;28;20207;-81
2023/10/09 03:55:39;;;;;;;13.07;5.27;;;;;;;13.33;100.00;98641.78;5072078;28;20628;-81
2023/10/09 03:58:06;;;;;;;9.30;4.70;;;;;;;13.34;100.00;98640.81;5075391;28;20199;-81
2023/10/09 04:00:41;;;;;;;10.07;4.20;;;;;;;13.30;100.00;98637.53;5076177;28;20252;-81
2023/10/09 04:03:11;;;;;;;9.73;4.27;;;;;;;13.26;100.00;98646.69;5076031;28;20199;-81
2023/10/09 04:05:40;;;;;;;8.87;4.40;;;;;;;13.23;100.00;98646.06;5076145;28;20211;-81
2023/10/09 04:08:13;;;;;;;7.83;3.73;;;;;;;13.23;100.00;98648.72;5076324;28;20609;-81
2023/10/09 04:10:52;;;;;;;7.63;3.87;;;;;;;13.20;100.00;98647.13;5075973;28;20207;-81
2023/10/09 04:13:22;;;;;;;10.33;4.30;;;;;;;13.18;100.00;98650.84;5075331;28;20289;-81
2023/10/09 04:15:52;;;;;;;11.67;4.60;;;;;;;13.12;100.00;98651.28;5075947;28;20658;-81
2023/10/09 04:18:21;;;;;;;9.47;4.40;;;;;;;13.06;100.00;98654.38;5076319;28;20212;-81
2023/10/09 04:21:18;;;;;;;11.10;4.97;;;;;;;13.00;100.00;98645.03;5075831;28;20231;-81
2023/10/09 04:26:29;;;;;;;15.27;5.10;;;;;;;12.97;100.00;98645.25;5075846;28;20211;-81
2023/10/09 04:28:55;;;;;;;8.87;4.67;;;;;;;12.98;100.00;98646.97;5076001;28;20209;-81
2023/10/09 04:31:31;;;;;;;9.27;4.43;;;;;;;13.01;100.00;98652.03;5074954;28;20231;-81
2023/10/09 04:36:47;;;;;;;10.73;4.77;;;;;;;13.06;100.00;98649.06;5074563;28;20204;-81
2023/10/09 04:39:35;;;;;;;12.07;5.27;;;;;;;13.07;100.00;98651.59;5075791;28;20211;-81
2023/10/09 04:42:26;;;;;;;7.77;4.37;;;;;;;13.07;100.00;98645.47;5074747;28;20234;-81
2023/10/09 04:47:38;;;;;;;11.47;4.10;;;;;;;13.06;100.00;98654.38;5075236;28;20206;-81
2023/10/09 04:50:08;;;;;;;8.00;4.33;;;;;;;13.05;100.00;98647.38;5075105;28;20267;-81
2023/10/09 04:52:52;;;;;;;7.83;4.13;;;;;;;13.06;100.00;98644.59;5074348;28;20727;-81
2023/10/09 04:55:24;;;;;;;10.87;4.50;;;;;;;13.11;100.00;98645.13;5075460;28;20286;-81
2023/10/09 04:58:08;;;;;;;12.57;5.50;;;;;;;13.14;100.00;98641.41;5075421;28;20239;-81
2023/10/09 05:01:03;;;;;;;9.60;4.63;;;;;;;13.15;100.00;98641.28;5076711;28;20208;-81
2023/10/09 05:03:42;;;;;;;10.53;4.97;;;;;;;13.12;100.00;98643.31;5086706;28;20199;-81
2023/10/09 05:08:54;;;;;;;8.60;4.70;;;;;;;13.12;100.00;98643.31;5076766;28;20206;-81
2023/10/09 05:11:34;;;;;;;12.33;4.77;;;;;;;13.10;100.00;98647.88;5079654;28;20234;-81
2023/10/09 05:16:54;;;;;;;9.37;4.60;;;;;;;13.10;100.00;98645.22;5070107;28;20297;-81
2023/10/09 05:19:33;;;;;;;12.20;4.77;;;;;;;13.15;100.00;98643.09;5074571;28;20220;-81
2023/10/09 05:22:04;;;;;;;12.87;4.93;;;;;;;13.12;100.00;98653.94;5075721;28;20276;-81
2023/10/09 05:24:43;;;;;;;10.07;4.87;;;;;;;13.09;100.00;98644.38;5075351;28;20191;-81
2023/10/09 05:27:17;;;;;;;9.63;4.23;;;;;;;13.08;100.00;98652.47;5074577;28;20203;-81
2023/10/09 05:32:29;;;;;;;10.87;4.43;;;;;;;13.10;100.00;98662.03;5071752;28;20313;-81
2023/10/09 05:35:15;;;;;;;11.97;4.97;;;;;;;13.12;100.00;98645.97;5074587;28;20273;-81
2023/10/09 05:37:45;;;;;;;11.10;4.37;;;;;;;13.13;100.00;98650.31;5075076;28;20290;-81
2023/10/09 05:40:22;;;;;;;11.43;4.57;;;;;;;13.18;100.00;98653.50;5075225;28;20280;-81
2023/10/09 05:42:59;;;;;;;10.60;4.77;;;;;;;13.16;100.00;98652.75;5074667;28;20344;-81
2023/10/09 05:54:11;;;;;;;12.33;4.50;;;;;;;13.18;100.00;98653.50;5073313;28;20210;-81
2023/10/09 06:04:49;;;;;;;8.83;4.77;;;;;;;13.31;100.00;98659.63;5075154;28;20237;-81
2023/10/09 06:07:23;;;;;;;13.50;4.53;;;;;;;13.36;100.00;98662.78;5076254;28;20215;-81
2023/10/09 06:09:52;;;;;;;14.03;4.90;;;;;;;13.39;100.00;98659.94;5074918;28;20237;-81
2023/10/09 06:12:49;;;;;;;13.20;4.73;;;;;;;13.43;100.00;98666.69;5074002;28;20227;-81
2023/10/09 06:15:45;;;;;;;10.50;4.57;;;;;;;13.46;100.00;98663.84;5074500;28;20258;-80
2023/10/09 06:21:19;;;;;;;11.10;4.60;;;;;;;13.56;100.00;98675.50;5073043;28;20235;-79
2023/10/09 06:24:09;;;;;;;10.17;5.67;;;;;;;13.55;100.00;98674.63;5074345;28;20310;-79
2023/10/09 06:26:37;;;;;;;11.10;4.50;;;;;;;13.55;100.00;98669.31;5074106;28;20211;-80
2023/10/09 06:29:16;;;;;;;9.07;4.13;;;;;;;13.58;100.00;98673.56;5075235;28;20251;-82
2023/10/09 06:31:57;;;;;;;10.80;4.10;;;;;;;13.61;100.00;98674.19;5073105;28;20223;-82
2023/10/09 06:34:32;;;;;;;8.37;4.30;;;;;;;13.69;100.00;98673.66;5073455;28;20658;-82
2023/10/09 06:37:03;;;;;;;12.73;4.50;;;;;;;13.77;100.00;98679.25;5073802;28;20190;-82
2023/10/09 06:42:31;;;;;;;11.77;4.27;;;;;;;13.80;100.00;98679.00;5072817;28;20233;-82
2023/10/09 06:45:15;;;;;;;10.53;4.27;;;;;;;13.80;100.00;98673.69;5073175;28;20265;-82
2023/10/09 06:47:41;;;;;;;11.27;3.97;;;;;;;13.86;100.00;98675.88;5073119;28;20255;-82
2023/10/09 06:50:25;;;;;;;12.40;4.43;;;;;;;13.86;100.00;98674.09;5072620;28;20268;-83
2023/10/09 06:52:57;;;;;;;7.33;3.60;;;;;;;13.92;100.00;98673.63;5070563;28;20222;-83
2023/10/09 06:55:33;;;;;;;15.03;4.27;;;;;;;13.93;100.00;98675.34;5073699;28;20606;-82
2023/10/09 06:58:01;;;;;;;12.33;4.13;;;;;;;13.99;100.00;98680.19;5072977;28;20685;-83
2023/10/09 07:03:12;;;;;;;9.57;4.40;;;;;;;14.07;100.00;98682.28;5074249;28;20199;-82
2023/10/09 07:05:48;;;;;;;9.27;4.27;;;;;;;14.12;100.00;98685.47;5073209;28;20735;-82
2023/10/09 07:11:57;;;;;;;13.17;5.23;;;;;;;14.28;100.00;98675.38;5137097;27;20556;-81
2023/10/09 07:14:32;;;;;;;14.40;6.20;;;;;;;14.28;100.00;98680.69;5132180;27;20683;-83
2023/10/09 07:16:58;;;;;;;17.10;6.90;;;;;;;14.27;100.00;98679.00;5130585;28;20695;-82
2023/10/09 07:19:35;;;;;;;15.17;6.03;;;;;;;14.25;100.00;98687.09;5130929;27;20225;-82
2023/10/09 07:22:02;;;;;;;13.80;5.80;;;;;;;14.27;100.00;98686.97;5129678;27;20327;-83
2023/10/09 07:24:37;;;;;;;12.80;5.97;;;;;;;14.35;100.00;98682.78;5130505;27;20207;-83
2023/10/09 07:27:09;;;;;;;15.20;5.70;;;;;;;14.43;100.00;98679.56;5130677;27;20229;-83
2023/10/09 07:29:47;;;;;;;10.27;4.83;;;;;;;14.55;100.00;98668.81;5130650;27;20731;-83
2023/10/09 07:32:20;;;;;;;14.40;5.23;;;;;;;14.65;100.00;98672.47;5130032;27;20332;-83
2023/10/09 07:34:58;;;;;;;11.80;4.70;;;;;;;14.72;99.90;98679.00;5130182;27;20209;-83
2023/10/09 07:37:30;;;;;;;11.87;4.73;;;;;;;14.77;99.53;98670.66;5129978;27;20219;-83
2023/10/09 07:39:58;;;;;;;14.40;4.97;;;;;;;14.80;99.93;98676.59;5130265;27;20209;-82
2023/10/09 07:42:34;;;;;;;10.87;5.43;;;;;;;14.91;99.99;98681.94;5129565;27;20236;-83
2023/10/09 07:45:12;;;;;;;12.10;5.10;;;;;;;14.88;100.00;98681.31;5129884;27;20307;-82
2023/10/09 07:50:21;;;;;;;9.13;4.33;;;;;;;14.96;100.00;98684.25;5129660;27;20700;-83
2023/10/09 07:52:49;;;;;;;10.63;4.53;;;;;;;15.03;100.00;98690.81;5129647;27;20293;-83
2023/10/09 07:55:26;;;;;;;12.17;4.73;;;;;;;15.13;100.00;98687.28;5130253;27;20213;-83
2023/10/09 07:57:54;;;;;;;12.13;4.80;;;;;;;15.25;100.00;98680.13;5130119;27;20215;-83
2023/10/09 08:01:06;;;;;;;11.20;4.33;;;;;;;15.34;100.00;98687.44;5129582;27;20204;-83
2023/10/09 08:03:32;;;;;;;10.30;3.87;;;;;;;15.41;99.94;98681.47;5129145;27;20205;-83
2023/10/09 08:06:06;;;;;;;10.53;4.73;;;;;;;15.48;98.92;98688.03;5129773;27;20255;-83
2023/10/09 08:09:16;;;;;;;13.00;4.50;;;;;;;15.56;98.27;98687.41;5129460;27;20204;-83
2023/10/09 08:11:59;;;;;;;11.20;4.47;;;;;;;15.67;97.11;98688.25;5128453;28;20289;-83
2023/10/09 08:17:20;;;;;;;10.17;4.20;;;;;;;15.89;94.96;98695.34;5118286;27;20197;-82
2023/10/09 08:19:53;;;;;;;9.07;5.00;;;;;;;16.02;93.19;98693.38;5129967;27;20201;-83
2023/10/09 08:22:42;;;;;;;11.70;4.77;;;;;;;16.08;92.09;98683.88;5116166;27;20222;-83
2023/10/09 08:25:25;;;;;;;10.87;4.80;;;;;;;16.15;92.52;98698.41;5115750;28;20206;-83
2023/10/09 08:27:55;;;;;;;11.47;4.97;;;;;;;16.25;93.17;98696.66;5115662;28;20682;-83
2023/10/09 08:36:04;;;;;;;8.43;4.27;;;;;;;16.47;92.02;98691.25;5115586;28;20213;-83
2023/10/09 08:38:33;;;;;;;17.63;4.90;;;;;;;16.50;88.15;98685.66;5115628;28;20275;-83
2023/10/09 08:41:15;;;;;;;9.63;4.40;;;;;;;16.59;88.43;98687.53;5115581;28;20218;-83
2023/10/09 08:43:49;;;;;;;10.47;4.60;;;;;;;16.69;88.96;98688.47;5115073;28;20213;-83
2023/10/09 08:46:20;;;;;;;13.30;4.93;;;;;;;16.73;88.55;98681.03;5115299;28;20263;-83
2023/10/09 08:48:47;;;;;;;8.93;4.17;;;;;;;16.79;88.32;98686.72;5115353;28;20674;-83
2023/10/09 08:51:14;;;;;;;10.07;4.70;;;;;;;16.83;88.03;98693.47;5115235;28;20234;-83
2023/10/09 08:53:42;;;;;;;10.30;4.65;;;;;;;16.95;88.27;98687.06;5114084;28;20502;-83
2023/10/09 08:56:10;;;;;;;6.90;3.90;;;;;;;17.00;88.45;98694.72;5116429;28;20234;-83
2023/10/09 08:58:38;;;;;;;11.37;4.63;;;;;;;17.05;88.48;98688.00;5118340;28;20214;-84
2023/10/09 09:01:07;;;;;;;10.97;4.47;;;;;;;17.12;88.51;98694.47;5119588;28;20222;-84
2023/10/09 09:03:43;;;;;;;10.93;4.37;;;;;;;17.19;88.10;98692.97;5116038;28;20213;-82
2023/10/09 09:06:10;;;;;;;10.23;4.20;;;;;;;17.27;87.61;98697.66;5115064;28;20209;-82
2023/10/09 09:08:37;;;;;;;11.67;4.60;;;;;;;17.32;85.44;98684.75;5115207;28;20210;-82
2023/10/09 09:11:12;;;;;;;12.27;5.30;;;;;;;17.44;84.29;98684.53;5114778;28;20267;-82
2023/10/09 09:13:41;;;;;;;11.73;4.77;;;;;;;17.45;83.36;98702.28;5114831;28;20209;-82
2023/10/09 09:16:18;;;;;;;13.73;5.40;;;;;;;17.52;82.29;98698.09;5115131;28;20247;-82
2023/10/09 09:19:00;;;;;;;13.80;4.73;;;;;;;17.64;80.42;98706.84;5115150;28;20202;-81
2023/10/09 09:21:27;;;;;;;15.57;6.30;;;;;;;17.86;84.96;98734.19;5114202;28;20218;-81
2023/10/09 09:23:54;;;;;;;15.37;5.37;;;;;;;17.95;84.81;98727.19;5114676;28;20202;-82
2023/10/09 09:26:37;;;;;;;19.80;6.03;;;;;;;18.00;82.98;98728.47;5114952;28;20297;-81
2023/10/09 09:29:05;;;;;;;13.60;5.33;;;;;;;17.99;82.03;98718.75;5114582;28;20209;-82
2023/10/09 09:31:37;;;;;;;12.40;5.77;;;;;;;17.97;82.17;98718.03;5114013;28;20230;-81
2023/10/09 09:34:13;;;;;;;12.80;5.37;;;;;;;18.03;82.96;98720.16;5113189;28;20238;-81
2023/10/09 09:36:54;;;;;;;11.53;5.83;;;;;;;18.14;82.62;98709.34;5114288;28;20209;-81
2023/10/09 09:39:27;;;;;;;10.60;4.47;;;;;;;18.20;82.82;98710.59;5114416;28;20206;-82
2023/10/09 09:41:57;;;;;;;11.10;5.17;;;;;;;18.30;82.97;98711.47;5114109;28;20232;-83
2023/10/09 09:44:26;;;;;;;9.87;4.63;;;;;;;18.39;82.84;98716.84;5115866;28;20210;-81
2023/10/09 09:46:55;;;;;;;11.50;4.63;;;;;;;18.46;82.00;98712.63;5115286;28;20319;-81
2023/10/09 09:49:23;;;;;;;10.37;4.33;;;;;;;18.58;81.87;98716.00;5114280;28;20704;-81
2023/10/09 09:51:50;;;;;;;7.30;4.47;;;;;;;18.67;81.68;98716.03;5113939;28;20237;-81
2023/10/09 09:54:17;;;;;;;9.70;4.97;;;;;;;18.77;81.96;98714.16;5115039;28;20204;-81
2023/10/09 09:56:50;;;;;;;9.07;4.50;;;;;;;18.87;81.33;98706.97;5115042;28;20198;-82
2023/10/09 09:59:21;;;;;;;10.07;4.37;;;;;;;18.99;80.63;98700.47;5114672;28;20206;-81
2023/10/09 10:01:56;;;;;;;8.53;4.23;;;;;;;19.11;79.64;98704.66;5114436;28;20230;-81
2023/10/09 10:04:26;;;;;;;10.83;4.57;;;;;;;19.26;79.44;98705.91;5115200;28;20225;-81
2023/10/09 10:06:57;;;;;;;11.27;4.40;;;;;;;19.40;79.15;98713.50;5114977;28;20206;-82
2023/10/09 10:09:38;;;;;;;7.87;3.80;;;;;;;19.54;78.75;98704.09;5114510;28;20225;-82
2023/10/09 10:12:09;;;;;;;7.73;4.17;;;;;;;19.64;79.27;98713.78;5113548;28;20309;-82
2023/10/09 10:14:56;;;;;;;8.80;3.87;;;;;;;19.72;78.10;98705.84;5114163;28;20229;-82
2023/10/09 10:17:23;;;;;;;9.43;3.73;;;;;;;19.81;77.39;98704.13;5114869;28;20206;-81
2023/10/09 10:20:26;;;;;;;9.73;4.57;;;;;;;19.91;77.20;98700.38;5114558;28;20209;-81
2023/10/09 10:23:17;;;;;;;7.13;3.93;;;;;;;20.03;77.33;98698.31;5113873;28;20206;-81
2023/10/09 10:25:48;;;;;;;10.70;4.50;;;;;;;20.16;76.73;98694.31;5114394;28;20305;-81
2023/10/09 10:28:28;;;;;;;8.77;4.47;;;;;;;20.23;77.01;98703.44;5114446;28;20218;-81
2023/10/09 10:30:55;;;;;;;8.67;4.63;;;;;;;20.32;76.84;98696.31;5113921;28;20226;-81
2023/10/09 10:33:22;;;;;;;8.60;4.00;;;;;;;20.39;77.04;98695.56;5113691;28;20214;-82
2023/10/09 10:35:54;;;;;;;6.57;3.63;;;;;;;20.48;76.63;98691.94;5114116;28;20210;-82
2023/10/09 10:38:36;;;;;;;9.03;3.53;;;;;;;20.57;76.70;98691.03;5114538;28;20241;-82
2023/10/09 10:41:16;;;;;;;9.20;3.70;;;;;;;20.63;77.35;98687.72;5113649;28;20313;-82
2023/10/09 10:43:54;;;;;;;5.37;3.33;;;;;;;20.68;78.03;98688.09;5113006;28;20283;-82
2023/10/09 10:46:30;;;;;;;9.23;4.00;;;;;;;20.70;78.31;98688.78;5113067;28;20212;-82
2023/10/09 10:48:59;;;;;;;6.43;3.57;;;;;;;20.72;77.37;98692.16;5113131;28;20212;-82
2023/10/09 10:51:35;;;;;;;8.27;4.13;;;;;;;20.76;76.98;98679.25;5113068;28;20618;-82
2023/10/09 10:54:26;;;;;;;7.10;4.00;;;;;;;20.73;76.38;98688.44;5113253;28;20237;-81
2023/10/09 10:56:49;;;;;;;10.17;4.20;;;;;;;20.70;74.96;98688.78;5112957;28;20245;-81
2023/10/09 10:59:22;;;;;;;18.33;6.70;;;;;;;20.60;72.52;98663.84;5113260;28;20709;-82
2023/10/09 11:01:57;;;;;;;24.30;9.10;;;;;;;20.64;71.00;98667.91;5111927;28;20230;-82
2023/10/09 11:04:38;;;;;;;13.17;6.20;;;;;;;20.75;70.75;98662.28;5113227;28;20201;-82
2023/10/09 11:07:12;;;;;;;12.20;5.00;;;;;;;20.81;69.59;98660.81;5113378;28;20251;-82
2023/10/09 11:09:59;;;;;;;14.30;5.70;;;;;;;20.89;68.94;98661.75;5113546;28;20267;-82
2023/10/09 11:12:37;;;;;;;10.00;4.83;;;;;;;21.05;68.37;98678.00;5112445;28;20225;-82
2023/10/09 11:15:08;;;;;;;11.90;4.57;;;;;;;21.26;67.10;98670.38;5113261;28;20206;-81
2023/10/09 11:17:35;;;;;;;10.07;4.57;;;;;;;21.49;66.28;98679.59;5113623;28;20202;-82
2023/10/09 11:20:22;;;;;;;11.70;4.83;;;;;;;21.66;66.63;98673.28;5113167;28;20229;-82
2023/10/09 11:23:14;;;;;;;12.17;4.60;;;;;;;21.79;66.01;98671.00;5113103;28;20225;-81
2023/10/09 11:25:50;;;;;;;10.57;4.03;;;;;;;21.70;67.07;98677.34;5113468;28;20267;-82
2023/10/09 11:28:29;;;;;;;11.53;4.70;;;;;;;21.61;68.23;98689.06;5113368;28;20205;-82
2023/10/09 11:31:05;;;;;;;11.90;4.63;;;;;;;21.52;69.08;98681.94;5113169;28;20305;-82
2023/10/09 11:33:43;;;;;;;11.83;4.40;;;;;;;21.48;68.11;98672.53;5113019;28;20300;-82
2023/10/09 11:36:09;;;;;;;7.90;4.03;;;;;;;21.38;68.02;98663.72;5113288;28;20190;-82
2023/10/09 11:38:38;;;;;;;10.97;4.67;;;;;;;21.33;68.60;98665.22;5113068;28;20220;-82
2023/10/09 11:41:19;;;;;;;10.43;4.13;;;;;;;21.25;70.38;98663.31;5112888;28;20700;-82
2023/10/09 11:43:53;;;;;;;6.90;3.73;;;;;;;21.13;72.04;98653.84;5112550;28;20647;-82
2023/10/09 11:46:48;;;;;;;9.43;4.20;;;;;;;21.08;73.96;98668.78;5113130;28;20668;-82
2023/10/09 11:49:26;;;;;;;8.63;3.90;;;;;;;21.06;75.36;98674.31;5113065;28;20698;-82
2023/10/09 11:52:33;;;;;;;11.67;4.30;;;;;;;21.10;76.63;98675.66;5112609;28;20316;-82
2023/10/09 11:54:56;;;;;;;8.57;4.07;;;;;;;21.12;75.79;98668.28;5112755;28;20623;-82
2023/10/09 11:57:30;;;;;;;13.97;4.83;;;;;;;21.14;75.18;98666.28;5116495;28;20296;-82
2023/10/09 11:59:56;;;;;;;11.60;5.17;;;;;;;21.15;75.51;98661.75;5119117;28;20256;-82
2023/10/09 12:02:23;;;;;;;6.73;3.50;;;;;;;21.13;76.23;98653.84;5117887;28;20222;-82
2023/10/09 12:04:49;;;;;;;10.20;3.83;;;;;;;21.16;77.70;98650.81;5117936;28;20210;-82
2023/10/09 12:07:16;;;;;;;8.17;4.13;;;;;;;21.11;78.68;98666.63;5117887;28;20558;-81
2023/10/09 12:09:42;;;;;;;8.67;4.43;;;;;;;21.06;76.66;98647.44;5117977;28;20218;-81
2023/10/09 12:12:10;;;;;;;10.97;5.13;;;;;;;21.05;74.18;98640.38;5116604;28;20255;-82
2023/10/09 12:14:37;;;;;;;8.47;4.40;;;;;;;21.04;72.37;98644.03;5118637;28;20202;-83
2023/10/09 12:17:06;;;;;;;8.20;3.77;;;;;;;21.07;71.57;98637.50;5119105;28;20214;-83
2023/10/09 12:19:34;;;;;;;10.47;3.83;;;;;;;21.07;71.22;98627.59;5118834;28;20206;-83
2023/10/09 12:22:01;;;;;;;9.00;3.67;;;;;;;21.14;70.18;98623.28;5118609;28;20272;-83
2023/10/09 12:24:28;;;;;;;9.27;4.20;;;;;;;21.28;69.24;98619.97;5119065;28;20202;-83
2023/10/09 12:26:55;;;;;;;12.87;4.30;;;;;;;21.36;71.98;98628.09;5120197;28;20213;-83
2023/10/09 12:29:23;;;;;;;8.87;4.07;;;;;;;21.45;73.44;98621.72;5118402;28;20206;-83
2023/10/09 12:31:57;;;;;;;8.43;4.27;;;;;;;21.57;73.58;98609.69;5117755;28;20320;-82
2023/10/09 12:34:26;;;;;;;10.57;4.50;;;;;;;21.64;73.52;98589.19;5117687;28;20578;-81
2023/10/09 12:36:53;;;;;;;10.83;4.60;;;;;;;21.69;72.54;98586.88;5115591;28;20620;-81
2023/10/09 12:39:21;;;;;;;7.23;3.73;;;;;;;21.70;72.12;98599.31;5115473;28;20292;-81
2023/10/09 12:41:48;;;;;;;7.80;3.80;;;;;;;21.75;70.87;98596.97;5114710;27;20237;-81
2023/10/09 12:44:15;;;;;;;8.27;3.87;;;;;;;21.76;69.52;98585.22;5115387;28;20582;-81
2023/10/09 12:46:51;;;;;;;12.60;4.53;;;;;;;21.93;67.07;98581.53;5115664;28;20209;-81
2023/10/09 12:49:18;;;;;;;10.07;3.83;;;;;;;21.92;66.15;98581.69;5115611;27;20237;-81